地図

経路データ

SID SEASON NUMBER BASIN SUBBASIN NAME ISO_TIME NATURE LAT LON WMO_WIND WMO_PRES WMO_AGENCY TRACK_TYPE DIST2LAND LANDFALL IFLAG USA_AGENCY USA_ATCF_ID USA_LAT USA_LON USA_RECORD USA_STATUS USA_WIND USA_PRES USA_SSHS USA_R34_NE USA_R34_SE USA_R34_SW USA_R34_NW USA_R50_NE USA_R50_SE USA_R50_SW USA_R50_NW USA_R64_NE USA_R64_SE USA_R64_SW USA_R64_NW USA_POCI USA_ROCI USA_RMW USA_EYE TOKYO_LAT TOKYO_LON TOKYO_GRADE TOKYO_WIND TOKYO_PRES TOKYO_R50_DIR TOKYO_R50_LONG TOKYO_R50_SHORT TOKYO_R30_DIR TOKYO_R30_LONG TOKYO_R30_SHORT TOKYO_LAND CMA_LAT CMA_LON CMA_CAT CMA_WIND CMA_PRES HKO_LAT HKO_LON HKO_CAT HKO_WIND HKO_PRES NEWDELHI_LAT NEWDELHI_LON NEWDELHI_GRADE NEWDELHI_WIND NEWDELHI_PRES NEWDELHI_CI NEWDELHI_DP NEWDELHI_POCI REUNION_LAT REUNION_LON REUNION_TYPE REUNION_WIND REUNION_PRES REUNION_TNUM REUNION_CI REUNION_RMW REUNION_R34_NE REUNION_R34_SE REUNION_R34_SW REUNION_R34_NW REUNION_R50_NE REUNION_R50_SE REUNION_R50_SW REUNION_R50_NW REUNION_R64_NE REUNION_R64_SE REUNION_R64_SW REUNION_R64_NW BOM_LAT BOM_LON BOM_TYPE BOM_WIND BOM_PRES BOM_TNUM BOM_CI BOM_RMW BOM_R34_NE BOM_R34_SE BOM_R34_SW BOM_R34_NW BOM_R50_NE BOM_R50_SE BOM_R50_SW BOM_R50_NW BOM_R64_NE BOM_R64_SE BOM_R64_SW BOM_R64_NW BOM_ROCI BOM_POCI BOM_EYE BOM_POS_METHOD BOM_PRES_METHOD NADI_LAT NADI_LON NADI_CAT NADI_WIND NADI_PRES WELLINGTON_LAT WELLINGTON_LON WELLINGTON_WIND WELLINGTON_PRES DS824_LAT DS824_LON DS824_STAGE DS824_WIND DS824_PRES TD9636_LAT TD9636_LON TD9636_STAGE TD9636_WIND TD9636_PRES TD9635_LAT TD9635_LON TD9635_WIND TD9635_PRES TD9635_ROCI NEUMANN_LAT NEUMANN_LON NEUMANN_CLASS NEUMANN_WIND NEUMANN_PRES MLC_LAT MLC_LON MLC_CLASS MLC_WIND MLC_PRES USA_GUST BOM_GUST BOM_GUST_PER REUNION_GUST REUNION_GUST_PER USA_SEAHGT USA_SEARAD_NE USA_SEARAD_SE USA_SEARAD_SW USA_SEARAD_NW STORM_SPEED STORM_DIR
1864240N33319 1864 14 NA NA NOT_NAMED 1864-08-26 12:00:00 TS 33.0000 -41.0000 main 1831 1831 _____________O -1 33.0000 -41.0000 TD 30 1 140
1864240N33319 1864 14 NA NA NOT_NAMED 1864-08-26 15:00:00 TS 32.9475 -40.9625 main 1840 1840 _____________P -1 32.9475 -40.9625 TD 30 1 143
1864240N33319 1864 14 NA NA NOT_NAMED 1864-08-26 18:00:00 TS 32.9000 -40.9000 main 1845 1845 _____________O -1 32.9000 -40.9000 TD 30 2 123
1864240N33319 1864 14 NA NA NOT_NAMED 1864-08-26 21:00:00 TS 32.8575 -40.8000 main 1850 1850 _____________P -1 32.8575 -40.8000 TD 30 2 121
1864240N33319 1864 14 NA NA NOT_NAMED 1864-08-27 00:00:00 TS 32.8000 -40.7000 main 1864 1864 _____________O -1 32.8000 -40.7000 TD 30 2 140
1864240N33319 1864 14 NA NA NOT_NAMED 1864-08-27 03:00:00 TS 32.7000 -40.6425 main 1879 1879 _____________P -1 32.7000 -40.6425 TD 30 2 155
1864240N33319 1864 14 NA NA NOT_NAMED 1864-08-27 06:00:00 TS 32.6000 -40.6000 main 1888 1888 _____________O -1 32.6000 -40.6000 TD 30 2 142
1864240N33319 1864 14 NA NA NOT_NAMED 1864-08-27 09:00:00 TS 32.5800 -40.5274 main 1893 1893 _____________P -1 32.5800 -40.5274 TD 30 1 140
1864240N33319 1864 14 NA NA NOT_NAMED 1864-08-27 12:00:00 TS 32.5000 -40.5000 main 1902 1902 _____________O -1 32.5000 -40.5000 TD 30 3 187
1864240N33319 1864 14 NA NA NOT_NAMED 1864-08-27 15:00:00 TS 32.2375 -40.5701 main 1927 1927 _____________P -1 32.2375 -40.5701 TD 30 6 196
1864240N33319 1864 14 NA NA NOT_NAMED 1864-08-27 18:00:00 TS 31.9000 -40.7000 main 1951 1951 _____________O -1 31.9000 -40.7000 TD 30 7 201
1864240N33319 1864 14 NA NA NOT_NAMED 1864-08-27 21:00:00 TS 31.6000 -40.8500 main 1971 1971 _____________P -1 31.6000 -40.8500 TD 30 7 203
1864240N33319 1864 14 NA NA NOT_NAMED 1864-08-28 00:00:00 TS 31.3000 -41.0000 main 1996 1996 _____________O -1 31.3000 -41.0000 TD 30 6 200
1864240N33319 1864 14 NA NA NOT_NAMED 1864-08-28 03:00:00 TS 31.0000 -41.1074 main 2021 2021 _____________P -1 31.0000 -41.1074 TD 30 6 196
1864240N33319 1864 14 NA NA NOT_NAMED 1864-08-28 06:00:00 TS 30.7000 -41.2000 main 2047 2047 _____________O -1 30.7000 -41.2000 TD 30 6 195
1864240N33319 1864 14 NA NA NOT_NAMED 1864-08-28 09:00:00 TS 30.4000 -41.2924 main 2072 2072 _____________P -1 30.4000 -41.2924 TD 30 6 196
1864240N33319 1864 14 NA NA NOT_NAMED 1864-08-28 12:00:00 TS 30.1000 -41.4000 main 2098 2098 _____________O -1 30.1000 -41.4000 TD 30 6 200
1864240N33319 1864 14 NA NA NOT_NAMED 1864-08-28 15:00:00 TS 29.8000 -41.5500 main 2120 2120 _____________P -1 29.8000 -41.5500 TD 30 7 203
1864240N33319 1864 14 NA NA NOT_NAMED 1864-08-28 18:00:00 TS 29.5000 -41.7000 main 2147 2147 _____________O -1 29.5000 -41.7000 TD 30 6 200
1864240N33319 1864 14 NA NA NOT_NAMED 1864-08-28 21:00:00 TS 29.2000 -41.8074 main 2173 2173 _____________P -1 29.2000 -41.8074 TD 32 6 196
1864240N33319 1864 14 NA NA NOT_NAMED 1864-08-29 00:00:00 TS 28.9000 -41.9000 main 2200 2200 _____________O -1 28.9000 -41.9000 TS 35 6 196
1864240N33319 1864 14 NA NA NOT_NAMED 1864-08-29 03:00:00 TS 28.6000 -41.9999 main 2227 2227 _____________P -1 28.6000 -41.9999 TS 35 6 196
1864240N33319 1864 14 NA NA NOT_NAMED 1864-08-29 06:00:00 TS 28.3000 -42.1000 main 2254 2254 _____________O -1 28.3000 -42.1000 TS 35 6 199
1864240N33319 1864 14 NA NA NOT_NAMED 1864-08-29 09:00:00 TS 28.0375 -42.2150 main 2282 2282 _____________P -1 28.0375 -42.2150 TS 37 6 196
1864240N33319 1864 14 NA NA NOT_NAMED 1864-08-29 12:00:00 TS 27.7000 -42.3000 main 2309 2309 _____________O -1 27.7000 -42.3000 TS 40 9 187
1864240N33319 1864 14 NA NA NOT_NAMED 1864-08-29 15:00:00 TS 27.1800 -42.3224 main 2361 2361 _____________P -1 27.1800 -42.3224 TS 42 11 180
1864240N33319 1864 14 NA NA NOT_NAMED 1864-08-29 18:00:00 TS 26.6000 -42.3000 main 2424 2424 _____________O -1 26.6000 -42.3000 TS 45 11 177
1864240N33319 1864 14 NA NA NOT_NAMED 1864-08-29 21:00:00 TS 26.1000 -42.2575 main 2477 2477 _____________P -1 26.1000 -42.2575 TS 45 10 175
1864240N33319 1864 14 NA NA NOT_NAMED 1864-08-30 00:00:00 TS 25.6000 -42.2000 main 2528 2487 _____________O -1 25.6000 -42.2000 TS 45 11 175
1864240N33319 1864 14 NA NA NOT_NAMED 1864-08-30 03:00:00 TS 25.0500 -42.1500 main 2487 2434 _____________P -1 25.0500 -42.1500 TS 45 11 175
1864240N33319 1864 14 NA NA NOT_NAMED 1864-08-30 06:00:00 TS 24.5000 -42.1000 main 2434 2370 _____________O -1 24.5000 -42.1000 TS 45 12 183
1864240N33319 1864 14 NA NA NOT_NAMED 1864-08-30 09:00:00 TS 23.8936 -42.2150 main 2370 2337 _____________P -1 23.8936 -42.2150 TS 45 10 175
1864240N33319 1864 14 NA NA NOT_NAMED 1864-08-30 12:00:00 TS 23.5000 -42.0000 main 2342 2342 _____________O -1 23.5000 -42.0000 TS 45 10 112
1864240N33319 1864 14 NA NA NOT_NAMED 1864-08-30 15:00:00 TS 23.4971 -41.1625 main 2385 2344 _____________P -1 23.4971 -41.1625 TS 42 21 82
1864240N33319 1864 14 NA NA NOT_NAMED 1864-08-30 18:00:00 TS 23.8000 -39.7000 main 2334 2118 _____________O -1 23.8000 -39.7000 TS 40 34 78
1864240N33319 1864 14 NA NA NOT_NAMED 1864-08-30 21:00:00 TS 24.2260 -37.5230 main 2108 1895 _____________P -1 24.2260 -37.5230 TS 40 40 76
1864240N33319 1864 14 NA NA NOT_NAMED 1864-08-31 00:00:00 TS 24.8000 -35.4000 main 1885 1761 _____________O -1 24.8000 -35.4000 TS 40 32 67
1864240N33319 1864 14 NA NA NOT_NAMED 1864-08-31 03:00:00 TS 25.4866 -34.2756 main 1758 1663 _____________P -1 25.4866 -34.2756 TS 37 22 51
1864240N33319 1864 14 NA NA NOT_NAMED 1864-08-31 06:00:00 TS 26.2000 -33.5000 main 1663 1565 _____________O -1 26.2000 -33.5000 TS 35 20 52
1864240N33319 1864 14 NA NA NOT_NAMED 1864-08-31 09:00:00 TS 26.7188 -32.5339 main 1555 1457 _____________P -1 26.7188 -32.5339 TS 35 21 58
1864240N33319 1864 14 NA NA NOT_NAMED 1864-08-31 12:00:00 ET 27.3000 -31.5000 main 1447 1330 _____________O -1 27.3000 -31.5000 EX 35 24 54
1864240N33319 1864 14 NA NA NOT_NAMED 1864-08-31 15:00:00 ET 28.1252 -30.3440 main 1320 1210 _____________P -1 28.1252 -30.3440 EX 32 28 50
1864240N33319 1864 14 NA NA NOT_NAMED 1864-08-31 18:00:00 ET 29.1000 -29.1000 main 1200 _____________O -1 29.1000 -29.1000 EX 30 29 48

IBTrACS Databaseについて

本データベースは、米国NOAAが公開する1842年以降の世界の熱帯低気圧のベストトラックデータアーカイブInternational Best Track Archive for Climate Stewardship (IBTrACS)を、ウェブで閲覧しやすい形式に変換したものです。

最終更新日:2021-10-08